sensor_id;sensor_type;location;lat;lon;timestamp;P1;durP1;ratioP1;P2;durP2;ratioP2
5682;SDS011;2864;49.220;8.654;2023-03-29T00:01:15;3.57;;;2.70;;
5682;SDS011;2864;49.220;8.654;2023-03-29T00:03:43;3.80;;;2.90;;
5682;SDS011;2864;49.220;8.654;2023-03-29T00:06:11;4.47;;;3.00;;
5682;SDS011;2864;49.220;8.654;2023-03-29T00:08:45;5.97;;;2.80;;
5682;SDS011;2864;49.220;8.654;2023-03-29T00:11:14;5.37;;;2.77;;
5682;SDS011;2864;49.220;8.654;2023-03-29T00:13:40;4.53;;;2.80;;
5682;SDS011;2864;49.220;8.654;2023-03-29T00:16:06;5.10;;;2.63;;
5682;SDS011;2864;49.220;8.654;2023-03-29T00:18:33;4.03;;;2.53;;
5682;SDS011;2864;49.220;8.654;2023-03-29T00:20:59;3.03;;;2.57;;
5682;SDS011;2864;49.220;8.654;2023-03-29T00:23:25;3.70;;;2.30;;
5682;SDS011;2864;49.220;8.654;2023-03-29T00:25:51;3.23;;;2.53;;
5682;SDS011;2864;49.220;8.654;2023-03-29T00:28:17;4.43;;;2.57;;
5682;SDS011;2864;49.220;8.654;2023-03-29T00:30:44;3.37;;;2.57;;
5682;SDS011;2864;49.220;8.654;2023-03-29T00:33:10;3.80;;;2.73;;
5682;SDS011;2864;49.220;8.654;2023-03-29T00:35:39;3.80;;;3.10;;
5682;SDS011;2864;49.220;8.654;2023-03-29T00:38:06;3.43;;;2.33;;
5682;SDS011;2864;49.220;8.654;2023-03-29T00:40:32;5.17;;;3.10;;
5682;SDS011;2864;49.220;8.654;2023-03-29T00:42:58;3.90;;;2.73;;
5682;SDS011;2864;49.220;8.654;2023-03-29T00:45:25;3.93;;;2.60;;
5682;SDS011;2864;49.220;8.654;2023-03-29T00:47:55;3.30;;;2.60;;
5682;SDS011;2864;49.220;8.654;2023-03-29T00:50:26;3.30;;;2.57;;
5682;SDS011;2864;49.220;8.654;2023-03-29T00:53:04;4.27;;;2.30;;
5682;SDS011;2864;49.220;8.654;2023-03-29T00:55:35;4.77;;;2.43;;
5682;SDS011;2864;49.220;8.654;2023-03-29T00:58:08;2.70;;;2.50;;
5682;SDS011;2864;49.220;8.654;2023-03-29T01:00:37;3.83;;;2.60;;
5682;SDS011;2864;49.220;8.654;2023-03-29T01:03:11;4.03;;;2.40;;
5682;SDS011;2864;49.220;8.654;2023-03-29T01:05:45;3.30;;;2.50;;
5682;SDS011;2864;49.220;8.654;2023-03-29T01:08:25;5.10;;;2.27;;
5682;SDS011;2864;49.220;8.654;2023-03-29T01:13:57;3.10;;;2.63;;
5682;SDS011;2864;49.220;8.654;2023-03-29T01:16:27;3.00;;;2.20;;
5682;SDS011;2864;49.220;8.654;2023-03-29T01:18:55;2.93;;;2.17;;
5682;SDS011;2864;49.220;8.654;2023-03-29T01:21:26;5.20;;;2.50;;
5682;SDS011;2864;49.220;8.654;2023-03-29T01:29:48;2.83;;;2.20;;
5682;SDS011;2864;49.220;8.654;2023-03-29T01:32:22;2.60;;;2.17;;
5682;SDS011;2864;49.220;8.654;2023-03-29T01:34:53;2.20;;;2.00;;
5682;SDS011;2864;49.220;8.654;2023-03-29T01:37:21;3.00;;;2.40;;
5682;SDS011;2864;49.220;8.654;2023-03-29T01:39:51;4.20;;;2.50;;
5682;SDS011;2864;49.220;8.654;2023-03-29T01:47:11;2.00;;;1.80;;
5682;SDS011;2864;49.220;8.654;2023-03-29T01:49:41;2.50;;;2.00;;
5682;SDS011;2864;49.220;8.654;2023-03-29T01:54:49;4.80;;;2.53;;
5682;SDS011;2864;49.220;8.654;2023-03-29T01:57:16;3.17;;;2.50;;
5682;SDS011;2864;49.220;8.654;2023-03-29T01:59:43;2.20;;;2.00;;
5682;SDS011;2864;49.220;8.654;2023-03-29T02:02:12;2.40;;;2.03;;
5682;SDS011;2864;49.220;8.654;2023-03-29T02:04:40;5.23;;;2.40;;
5682;SDS011;2864;49.220;8.654;2023-03-29T02:07:09;2.70;;;2.40;;
5682;SDS011;2864;49.220;8.654;2023-03-29T02:09:36;3.23;;;2.13;;
5682;SDS011;2864;49.220;8.654;2023-03-29T02:12:03;3.00;;;1.83;;
5682;SDS011;2864;49.220;8.654;2023-03-29T02:14:31;2.00;;;1.80;;
5682;SDS011;2864;49.220;8.654;2023-03-29T02:17:08;3.67;;;2.40;;
5682;SDS011;2864;49.220;8.654;2023-03-29T02:19:34;2.30;;;2.00;;
5682;SDS011;2864;49.220;8.654;2023-03-29T02:22:06;2.53;;;2.00;;
5682;SDS011;2864;49.220;8.654;2023-03-29T02:24:34;4.53;;;2.00;;
5682;SDS011;2864;49.220;8.654;2023-03-29T02:27:01;2.83;;;2.20;;
5682;SDS011;2864;49.220;8.654;2023-03-29T02:29:28;2.10;;;2.00;;
5682;SDS011;2864;49.220;8.654;2023-03-29T02:31:56;1.97;;;1.77;;
5682;SDS011;2864;49.220;8.654;2023-03-29T02:34:24;4.23;;;2.03;;
5682;SDS011;2864;49.220;8.654;2023-03-29T02:37:02;3.43;;;2.03;;
5682;SDS011;2864;49.220;8.654;2023-03-29T02:39:32;5.00;;;2.20;;
5682;SDS011;2864;49.220;8.654;2023-03-29T02:41:58;2.87;;;2.17;;
5682;SDS011;2864;49.220;8.654;2023-03-29T02:44:26;3.30;;;2.00;;
5682;SDS011;2864;49.220;8.654;2023-03-29T02:46:54;3.23;;;2.10;;
5682;SDS011;2864;49.220;8.654;2023-03-29T02:49:21;3.27;;;2.20;;
5682;SDS011;2864;49.220;8.654;2023-03-29T02:51:47;2.30;;;2.10;;
5682;SDS011;2864;49.220;8.654;2023-03-29T02:54:21;2.40;;;2.20;;
5682;SDS011;2864;49.220;8.654;2023-03-29T02:56:48;2.30;;;2.10;;
5682;SDS011;2864;49.220;8.654;2023-03-29T02:59:14;3.07;;;2.23;;
5682;SDS011;2864;49.220;8.654;2023-03-29T03:01:43;3.70;;;2.17;;
5682;SDS011;2864;49.220;8.654;2023-03-29T03:04:09;3.77;;;2.17;;
5682;SDS011;2864;49.220;8.654;2023-03-29T03:06:36;4.83;;;2.50;;
5682;SDS011;2864;49.220;8.654;2023-03-29T03:09:03;3.10;;;2.50;;
5682;SDS011;2864;49.220;8.654;2023-03-29T03:11:30;4.00;;;2.07;;
5682;SDS011;2864;49.220;8.654;2023-03-29T03:13:56;2.27;;;2.07;;
5682;SDS011;2864;49.220;8.654;2023-03-29T03:16:22;3.90;;;2.10;;
5682;SDS011;2864;49.220;8.654;2023-03-29T03:18:48;2.97;;;2.53;;
5682;SDS011;2864;49.220;8.654;2023-03-29T03:21:15;2.57;;;2.20;;
5682;SDS011;2864;49.220;8.654;2023-03-29T03:23:41;2.40;;;2.10;;
5682;SDS011;2864;49.220;8.654;2023-03-29T03:26:07;3.50;;;2.57;;
5682;SDS011;2864;49.220;8.654;2023-03-29T03:28:34;4.30;;;2.17;;
5682;SDS011;2864;49.220;8.654;2023-03-29T03:31:00;3.97;;;2.60;;
5682;SDS011;2864;49.220;8.654;2023-03-29T03:33:26;3.80;;;2.10;;
5682;SDS011;2864;49.220;8.654;2023-03-29T03:35:53;3.00;;;2.17;;
5682;SDS011;2864;49.220;8.654;2023-03-29T03:38:21;2.67;;;2.10;;
5682;SDS011;2864;49.220;8.654;2023-03-29T03:40:53;3.03;;;2.40;;
5682;SDS011;2864;49.220;8.654;2023-03-29T03:43:19;4.30;;;2.03;;
5682;SDS011;2864;49.220;8.654;2023-03-29T03:45:45;2.20;;;2.00;;
5682;SDS011;2864;49.220;8.654;2023-03-29T03:48:11;4.53;;;2.23;;
5682;SDS011;2864;49.220;8.654;2023-03-29T03:50:37;2.83;;;2.30;;
5682;SDS011;2864;49.220;8.654;2023-03-29T03:53:04;3.60;;;2.20;;
5682;SDS011;2864;49.220;8.654;2023-03-29T03:55:31;2.53;;;2.23;;
5682;SDS011;2864;49.220;8.654;2023-03-29T03:57:57;3.27;;;2.10;;
5682;SDS011;2864;49.220;8.654;2023-03-29T04:00:23;4.93;;;2.10;;
5682;SDS011;2864;49.220;8.654;2023-03-29T04:02:49;4.77;;;2.40;;
5682;SDS011;2864;49.220;8.654;2023-03-29T04:05:15;2.80;;;2.17;;
5682;SDS011;2864;49.220;8.654;2023-03-29T04:07:41;3.67;;;2.37;;
5682;SDS011;2864;49.220;8.654;2023-03-29T04:10:07;2.50;;;2.30;;
5682;SDS011;2864;49.220;8.654;2023-03-29T04:12:36;2.50;;;2.30;;
5682;SDS011;2864;49.220;8.654;2023-03-29T04:15:02;3.20;;;2.23;;
5682;SDS011;2864;49.220;8.654;2023-03-29T04:17:28;3.90;;;2.30;;
5682;SDS011;2864;49.220;8.654;2023-03-29T04:19:54;3.43;;;2.17;;
5682;SDS011;2864;49.220;8.654;2023-03-29T04:22:21;4.00;;;2.37;;
5682;SDS011;2864;49.220;8.654;2023-03-29T04:24:47;5.70;;;2.27;;
5682;SDS011;2864;49.220;8.654;2023-03-29T04:27:13;2.40;;;2.20;;
5682;SDS011;2864;49.220;8.654;2023-03-29T04:29:39;3.90;;;2.80;;
5682;SDS011;2864;49.220;8.654;2023-03-29T04:32:05;8.27;;;2.77;;
5682;SDS011;2864;49.220;8.654;2023-03-29T04:34:31;3.00;;;2.30;;
5682;SDS011;2864;49.220;8.654;2023-03-29T04:36:57;3.67;;;2.27;;
5682;SDS011;2864;49.220;8.654;2023-03-29T04:39:23;4.03;;;2.30;;
5682;SDS011;2864;49.220;8.654;2023-03-29T04:41:57;2.80;;;2.50;;
5682;SDS011;2864;49.220;8.654;2023-03-29T04:44:24;3.30;;;2.30;;
5682;SDS011;2864;49.220;8.654;2023-03-29T04:46:50;3.13;;;2.37;;
5682;SDS011;2864;49.220;8.654;2023-03-29T04:49:16;3.70;;;2.57;;
5682;SDS011;2864;49.220;8.654;2023-03-29T04:51:42;3.87;;;2.40;;
5682;SDS011;2864;49.220;8.654;2023-03-29T04:54:08;2.60;;;2.40;;
5682;SDS011;2864;49.220;8.654;2023-03-29T04:56:34;2.90;;;2.37;;
5682;SDS011;2864;49.220;8.654;2023-03-29T04:59:00;4.00;;;2.30;;
5682;SDS011;2864;49.220;8.654;2023-03-29T05:01:26;5.63;;;2.73;;
5682;SDS011;2864;49.220;8.654;2023-03-29T05:03:52;3.73;;;2.60;;
5682;SDS011;2864;49.220;8.654;2023-03-29T05:06:18;5.30;;;2.80;;
5682;SDS011;2864;49.220;8.654;2023-03-29T05:08:45;3.10;;;2.37;;
5682;SDS011;2864;49.220;8.654;2023-03-29T05:11:11;6.27;;;2.67;;
5682;SDS011;2864;49.220;8.654;2023-03-29T05:13:37;3.03;;;2.53;;
5682;SDS011;2864;49.220;8.654;2023-03-29T05:16:04;4.53;;;2.80;;
5682;SDS011;2864;49.220;8.654;2023-03-29T05:18:30;3.33;;;2.90;;
5682;SDS011;2864;49.220;8.654;2023-03-29T05:20:57;3.83;;;3.03;;
5682;SDS011;2864;49.220;8.654;2023-03-29T05:23:23;3.83;;;3.40;;
5682;SDS011;2864;49.220;8.654;2023-03-29T05:25:50;6.87;;;4.23;;
5682;SDS011;2864;49.220;8.654;2023-03-29T05:28:17;6.17;;;3.70;;
5682;SDS011;2864;49.220;8.654;2023-03-29T05:30:43;6.83;;;3.63;;
5682;SDS011;2864;49.220;8.654;2023-03-29T05:33:09;5.50;;;3.37;;
5682;SDS011;2864;49.220;8.654;2023-03-29T05:35:35;5.60;;;3.63;;
5682;SDS011;2864;49.220;8.654;2023-03-29T05:38:02;5.47;;;3.47;;
5682;SDS011;2864;49.220;8.654;2023-03-29T05:40:29;4.10;;;3.20;;
5682;SDS011;2864;49.220;8.654;2023-03-29T05:42:56;6.63;;;3.60;;
5682;SDS011;2864;49.220;8.654;2023-03-29T05:45:23;4.20;;;3.17;;
5682;SDS011;2864;49.220;8.654;2023-03-29T05:47:52;6.23;;;3.37;;
5682;SDS011;2864;49.220;8.654;2023-03-29T05:50:18;4.07;;;3.00;;
5682;SDS011;2864;49.220;8.654;2023-03-29T05:52:44;4.43;;;3.10;;
5682;SDS011;2864;49.220;8.654;2023-03-29T05:55:11;3.80;;;2.83;;
5682;SDS011;2864;49.220;8.654;2023-03-29T05:57:37;5.37;;;3.60;;
5682;SDS011;2864;49.220;8.654;2023-03-29T06:00:04;5.00;;;3.10;;
5682;SDS011;2864;49.220;8.654;2023-03-29T06:02:44;3.67;;;2.90;;
5682;SDS011;2864;49.220;8.654;2023-03-29T06:05:10;3.77;;;2.33;;
5682;SDS011;2864;49.220;8.654;2023-03-29T06:07:37;4.87;;;2.67;;
5682;SDS011;2864;49.220;8.654;2023-03-29T06:10:04;3.47;;;2.90;;
5682;SDS011;2864;49.220;8.654;2023-03-29T06:12:30;4.87;;;3.20;;
5682;SDS011;2864;49.220;8.654;2023-03-29T06:14:56;4.90;;;2.90;;
5682;SDS011;2864;49.220;8.654;2023-03-29T06:17:27;5.73;;;2.80;;
5682;SDS011;2864;49.220;8.654;2023-03-29T06:23:16;7.67;;;3.30;;
5682;SDS011;2864;49.220;8.654;2023-03-29T06:25:43;4.80;;;3.10;;
5682;SDS011;2864;49.220;8.654;2023-03-29T06:28:09;4.37;;;3.30;;
5682;SDS011;2864;49.220;8.654;2023-03-29T06:30:36;4.93;;;3.03;;
5682;SDS011;2864;49.220;8.654;2023-03-29T06:33:02;3.93;;;2.90;;
5682;SDS011;2864;49.220;8.654;2023-03-29T06:35:30;3.27;;;2.70;;
5682;SDS011;2864;49.220;8.654;2023-03-29T06:37:56;7.47;;;2.90;;
5682;SDS011;2864;49.220;8.654;2023-03-29T06:40:22;2.83;;;2.50;;
5682;SDS011;2864;49.220;8.654;2023-03-29T06:42:48;6.90;;;2.97;;
5682;SDS011;2864;49.220;8.654;2023-03-29T06:45:21;4.63;;;2.80;;
5682;SDS011;2864;49.220;8.654;2023-03-29T06:47:47;5.10;;;3.20;;
5682;SDS011;2864;49.220;8.654;2023-03-29T06:50:13;5.20;;;3.27;;
5682;SDS011;2864;49.220;8.654;2023-03-29T06:52:41;3.70;;;3.10;;
5682;SDS011;2864;49.220;8.654;2023-03-29T06:55:07;4.70;;;3.30;;
5682;SDS011;2864;49.220;8.654;2023-03-29T06:57:33;5.90;;;2.97;;
5682;SDS011;2864;49.220;8.654;2023-03-29T06:59:59;3.63;;;2.90;;
5682;SDS011;2864;49.220;8.654;2023-03-29T07:02:25;4.73;;;2.60;;
5682;SDS011;2864;49.220;8.654;2023-03-29T07:04:52;4.27;;;3.00;;
5682;SDS011;2864;49.220;8.654;2023-03-29T07:07:20;5.17;;;3.87;;
5682;SDS011;2864;49.220;8.654;2023-03-29T07:09:46;5.33;;;2.90;;
5682;SDS011;2864;49.220;8.654;2023-03-29T07:12:18;4.67;;;2.83;;
5682;SDS011;2864;49.220;8.654;2023-03-29T07:14:45;4.27;;;3.10;;
5682;SDS011;2864;49.220;8.654;2023-03-29T07:17:11;5.60;;;3.33;;
5682;SDS011;2864;49.220;8.654;2023-03-29T07:19:37;7.30;;;3.20;;
5682;SDS011;2864;49.220;8.654;2023-03-29T07:22:04;3.77;;;3.13;;
5682;SDS011;2864;49.220;8.654;2023-03-29T07:24:30;4.40;;;2.97;;
5682;SDS011;2864;49.220;8.654;2023-03-29T07:26:56;5.73;;;3.30;;
5682;SDS011;2864;49.220;8.654;2023-03-29T07:29:22;8.87;;;4.00;;
5682;SDS011;2864;49.220;8.654;2023-03-29T07:31:48;8.33;;;3.60;;
5682;SDS011;2864;49.220;8.654;2023-03-29T07:34:14;3.93;;;3.03;;
5682;SDS011;2864;49.220;8.654;2023-03-29T07:36:41;7.93;;;3.30;;
5682;SDS011;2864;49.220;8.654;2023-03-29T07:39:09;4.77;;;3.00;;
5682;SDS011;2864;49.220;8.654;2023-03-29T07:41:36;4.90;;;2.93;;
5682;SDS011;2864;49.220;8.654;2023-03-29T07:44:02;6.33;;;3.47;;
5682;SDS011;2864;49.220;8.654;2023-03-29T07:46:33;7.67;;;3.37;;
5682;SDS011;2864;49.220;8.654;2023-03-29T07:48:59;4.07;;;2.90;;
5682;SDS011;2864;49.220;8.654;2023-03-29T07:51:25;3.53;;;2.67;;
5682;SDS011;2864;49.220;8.654;2023-03-29T07:53:52;9.83;;;3.07;;
5682;SDS011;2864;49.220;8.654;2023-03-29T07:56:18;6.43;;;3.20;;
5682;SDS011;2864;49.220;8.654;2023-03-29T07:58:44;4.57;;;3.00;;
5682;SDS011;2864;49.220;8.654;2023-03-29T08:01:10;4.93;;;3.20;;
5682;SDS011;2864;49.220;8.654;2023-03-29T08:03:39;7.07;;;3.10;;
5682;SDS011;2864;49.220;8.654;2023-03-29T08:06:05;7.10;;;3.13;;
5682;SDS011;2864;49.220;8.654;2023-03-29T08:08:31;4.03;;;3.20;;
5682;SDS011;2864;49.220;8.654;2023-03-29T08:10:57;7.17;;;3.00;;
5682;SDS011;2864;49.220;8.654;2023-03-29T08:13:23;4.73;;;3.07;;
5682;SDS011;2864;49.220;8.654;2023-03-29T08:15:49;8.40;;;3.07;;
5682;SDS011;2864;49.220;8.654;2023-03-29T08:18:15;5.30;;;3.07;;
5682;SDS011;2864;49.220;8.654;2023-03-29T08:20:41;5.80;;;3.20;;
5682;SDS011;2864;49.220;8.654;2023-03-29T08:23:07;5.07;;;3.13;;
5682;SDS011;2864;49.220;8.654;2023-03-29T08:25:33;10.67;;;3.67;;
5682;SDS011;2864;49.220;8.654;2023-03-29T08:28:00;11.93;;;3.63;;
5682;SDS011;2864;49.220;8.654;2023-03-29T08:30:26;7.80;;;3.50;;
5682;SDS011;2864;49.220;8.654;2023-03-29T08:32:52;4.97;;;3.27;;
5682;SDS011;2864;49.220;8.654;2023-03-29T08:35:18;7.57;;;3.07;;
5682;SDS011;2864;49.220;8.654;2023-03-29T08:37:44;7.90;;;3.30;;
5682;SDS011;2864;49.220;8.654;2023-03-29T08:40:15;5.33;;;3.00;;
5682;SDS011;2864;49.220;8.654;2023-03-29T08:42:46;8.93;;;3.13;;
5682;SDS011;2864;49.220;8.654;2023-03-29T08:47:53;5.70;;;3.23;;
5682;SDS011;2864;49.220;8.654;2023-03-29T08:50:21;4.10;;;2.90;;
5682;SDS011;2864;49.220;8.654;2023-03-29T08:53:11;5.83;;;3.20;;
5682;SDS011;2864;49.220;8.654;2023-03-29T08:55:40;6.13;;;3.30;;
5682;SDS011;2864;49.220;8.654;2023-03-29T08:58:11;5.17;;;3.80;;
5682;SDS011;2864;49.220;8.654;2023-03-29T09:00:39;3.83;;;3.07;;
5682;SDS011;2864;49.220;8.654;2023-03-29T09:03:10;4.60;;;3.07;;
5682;SDS011;2864;49.220;8.654;2023-03-29T09:05:42;7.27;;;3.40;;
5682;SDS011;2864;49.220;8.654;2023-03-29T09:08:11;8.30;;;3.43;;
5682;SDS011;2864;49.220;8.654;2023-03-29T09:10:41;4.30;;;2.77;;
5682;SDS011;2864;49.220;8.654;2023-03-29T09:15:56;3.60;;;2.93;;
5682;SDS011;2864;49.220;8.654;2023-03-29T09:23:20;6.83;;;2.90;;
5682;SDS011;2864;49.220;8.654;2023-03-29T09:28:18;4.83;;;2.77;;
5682;SDS011;2864;49.220;8.654;2023-03-29T09:31:02;3.43;;;2.97;;
5682;SDS011;2864;49.220;8.654;2023-03-29T09:33:35;3.97;;;2.97;;
5682;SDS011;2864;49.220;8.654;2023-03-29T09:38:51;3.90;;;2.60;;
5682;SDS011;2864;49.220;8.654;2023-03-29T09:43:51;3.23;;;2.57;;
5682;SDS011;2864;49.220;8.654;2023-03-29T09:46:21;5.50;;;3.17;;
5682;SDS011;2864;49.220;8.654;2023-03-29T09:48:48;5.90;;;2.43;;
5682;SDS011;2864;49.220;8.654;2023-03-29T09:51:15;5.10;;;2.60;;
5682;SDS011;2864;49.220;8.654;2023-03-29T09:53:43;4.13;;;3.00;;
5682;SDS011;2864;49.220;8.654;2023-03-29T09:56:11;3.73;;;2.63;;
5682;SDS011;2864;49.220;8.654;2023-03-29T09:58:39;4.83;;;2.60;;
5682;SDS011;2864;49.220;8.654;2023-03-29T10:01:10;6.47;;;2.63;;
5682;SDS011;2864;49.220;8.654;2023-03-29T10:03:38;4.33;;;2.80;;
5682;SDS011;2864;49.220;8.654;2023-03-29T10:06:05;4.87;;;3.20;;
5682;SDS011;2864;49.220;8.654;2023-03-29T10:11:00;3.83;;;2.50;;
5682;SDS011;2864;49.220;8.654;2023-03-29T10:13:28;3.63;;;2.47;;
5682;SDS011;2864;49.220;8.654;2023-03-29T10:15:59;3.30;;;2.47;;
5682;SDS011;2864;49.220;8.654;2023-03-29T10:18:26;5.83;;;3.00;;
5682;SDS011;2864;49.220;8.654;2023-03-29T10:20:57;6.20;;;2.80;;
5682;SDS011;2864;49.220;8.654;2023-03-29T10:23:28;4.73;;;2.90;;
5682;SDS011;2864;49.220;8.654;2023-03-29T10:25:54;6.50;;;2.70;;
5682;SDS011;2864;49.220;8.654;2023-03-29T10:28:20;4.33;;;2.60;;
5682;SDS011;2864;49.220;8.654;2023-03-29T10:30:51;3.87;;;2.70;;
5682;SDS011;2864;49.220;8.654;2023-03-29T10:33:18;4.57;;;2.50;;
5682;SDS011;2864;49.220;8.654;2023-03-29T10:35:46;3.40;;;2.70;;
5682;SDS011;2864;49.220;8.654;2023-03-29T10:38:13;4.90;;;2.70;;
5682;SDS011;2864;49.220;8.654;2023-03-29T10:40:44;3.23;;;2.67;;
5682;SDS011;2864;49.220;8.654;2023-03-29T10:45:38;5.27;;;2.63;;
5682;SDS011;2864;49.220;8.654;2023-03-29T10:48:05;3.43;;;2.43;;
5682;SDS011;2864;49.220;8.654;2023-03-29T10:50:35;4.17;;;2.47;;
5682;SDS011;2864;49.220;8.654;2023-03-29T10:53:02;6.67;;;2.60;;
5682;SDS011;2864;49.220;8.654;2023-03-29T10:55:33;4.57;;;2.80;;
5682;SDS011;2864;49.220;8.654;2023-03-29T11:00:55;3.73;;;2.20;;
5682;SDS011;2864;49.220;8.654;2023-03-29T11:08:28;5.33;;;2.50;;
5682;SDS011;2864;49.220;8.654;2023-03-29T11:19:04;3.50;;;2.50;;
5682;SDS011;2864;49.220;8.654;2023-03-29T11:26:57;5.00;;;2.77;;
5682;SDS011;2864;49.220;8.654;2023-03-29T11:34:35;3.10;;;1.93;;
5682;SDS011;2864;49.220;8.654;2023-03-29T11:42:24;2.73;;;1.80;;
5682;SDS011;2864;49.220;8.654;2023-03-29T11:44:53;2.90;;;2.27;;
5682;SDS011;2864;49.220;8.654;2023-03-29T11:47:21;2.57;;;2.07;;
5682;SDS011;2864;49.220;8.654;2023-03-29T11:49:49;5.63;;;2.40;;
5682;SDS011;2864;49.220;8.654;2023-03-29T11:54:51;3.43;;;2.20;;
5682;SDS011;2864;49.220;8.654;2023-03-29T11:59:50;5.17;;;2.00;;
5682;SDS011;2864;49.220;8.654;2023-03-29T12:04:56;3.37;;;2.07;;
5682;SDS011;2864;49.220;8.654;2023-03-29T12:10:05;4.13;;;2.17;;
5682;SDS011;2864;49.220;8.654;2023-03-29T12:15:19;3.63;;;2.23;;
5682;SDS011;2864;49.220;8.654;2023-03-29T12:18:04;3.20;;;2.03;;
5682;SDS011;2864;49.220;8.654;2023-03-29T12:20:35;2.70;;;2.10;;
5682;SDS011;2864;49.220;8.654;2023-03-29T12:23:02;8.23;;;2.30;;
5682;SDS011;2864;49.220;8.654;2023-03-29T12:25:30;7.40;;;2.67;;
5682;SDS011;2864;49.220;8.654;2023-03-29T12:30:46;7.50;;;2.50;;
5682;SDS011;2864;49.220;8.654;2023-03-29T12:33:25;8.80;;;2.30;;
5682;SDS011;2864;49.220;8.654;2023-03-29T12:40:47;2.10;;;1.90;;
5682;SDS011;2864;49.220;8.654;2023-03-29T12:45:51;2.23;;;1.80;;
5682;SDS011;2864;49.220;8.654;2023-03-29T12:48:19;6.07;;;1.90;;
5682;SDS011;2864;49.220;8.654;2023-03-29T12:50:50;4.07;;;2.23;;
5682;SDS011;2864;49.220;8.654;2023-03-29T12:58:19;5.10;;;2.30;;
5682;SDS011;2864;49.220;8.654;2023-03-29T13:03:49;4.47;;;2.10;;
5682;SDS011;2864;49.220;8.654;2023-03-29T13:06:32;2.30;;;1.90;;
5682;SDS011;2864;49.220;8.654;2023-03-29T13:11:36;3.27;;;2.50;;
5682;SDS011;2864;49.220;8.654;2023-03-29T13:14:12;4.77;;;2.50;;
5682;SDS011;2864;49.220;8.654;2023-03-29T13:16:39;4.50;;;2.40;;
5682;SDS011;2864;49.220;8.654;2023-03-29T13:21:49;4.00;;;2.23;;
5682;SDS011;2864;49.220;8.654;2023-03-29T13:27:03;5.37;;;2.47;;
5682;SDS011;2864;49.220;8.654;2023-03-29T13:34:46;3.83;;;2.40;;
5682;SDS011;2864;49.220;8.654;2023-03-29T13:37:34;5.20;;;2.53;;
5682;SDS011;2864;49.220;8.654;2023-03-29T13:40:22;4.10;;;2.27;;
5682;SDS011;2864;49.220;8.654;2023-03-29T13:42:58;3.50;;;1.90;;
5682;SDS011;2864;49.220;8.654;2023-03-29T13:45:28;3.50;;;2.27;;
5682;SDS011;2864;49.220;8.654;2023-03-29T13:48:18;3.67;;;1.97;;
5682;SDS011;2864;49.220;8.654;2023-03-29T13:50:56;4.53;;;2.17;;
5682;SDS011;2864;49.220;8.654;2023-03-29T13:53:30;2.93;;;2.07;;
5682;SDS011;2864;49.220;8.654;2023-03-29T13:55:57;3.20;;;1.90;;
5682;SDS011;2864;49.220;8.654;2023-03-29T14:01:10;4.00;;;1.80;;
5682;SDS011;2864;49.220;8.654;2023-03-29T14:03:41;2.73;;;1.80;;
5682;SDS011;2864;49.220;8.654;2023-03-29T14:06:09;3.93;;;2.27;;
5682;SDS011;2864;49.220;8.654;2023-03-29T14:08:41;3.87;;;1.83;;
5682;SDS011;2864;49.220;8.654;2023-03-29T14:11:17;4.17;;;1.70;;
5682;SDS011;2864;49.220;8.654;2023-03-29T14:13:45;2.40;;;1.70;;
5682;SDS011;2864;49.220;8.654;2023-03-29T14:16:11;3.33;;;1.60;;
5682;SDS011;2864;49.220;8.654;2023-03-29T14:18:40;4.50;;;1.90;;
5682;SDS011;2864;49.220;8.654;2023-03-29T14:21:10;4.47;;;1.90;;
5682;SDS011;2864;49.220;8.654;2023-03-29T14:23:36;2.80;;;1.47;;
5682;SDS011;2864;49.220;8.654;2023-03-29T14:26:16;3.67;;;1.93;;
5682;SDS011;2864;49.220;8.654;2023-03-29T14:28:46;3.17;;;1.90;;
5682;SDS011;2864;49.220;8.654;2023-03-29T14:31:17;2.30;;;1.60;;
5682;SDS011;2864;49.220;8.654;2023-03-29T14:33:43;2.10;;;1.60;;
5682;SDS011;2864;49.220;8.654;2023-03-29T14:36:09;3.97;;;1.80;;
5682;SDS011;2864;49.220;8.654;2023-03-29T14:38:39;5.73;;;1.90;;
5682;SDS011;2864;49.220;8.654;2023-03-29T14:41:06;3.23;;;1.70;;
5682;SDS011;2864;49.220;8.654;2023-03-29T14:43:32;3.57;;;1.77;;
5682;SDS011;2864;49.220;8.654;2023-03-29T14:45:58;4.80;;;1.90;;
5682;SDS011;2864;49.220;8.654;2023-03-29T14:48:26;3.20;;;1.97;;
5682;SDS011;2864;49.220;8.654;2023-03-29T14:50:52;11.07;;;2.20;;
5682;SDS011;2864;49.220;8.654;2023-03-29T14:53:21;2.50;;;1.70;;
5682;SDS011;2864;49.220;8.654;2023-03-29T14:55:48;2.23;;;1.70;;
5682;SDS011;2864;49.220;8.654;2023-03-29T14:58:19;3.60;;;1.80;;
5682;SDS011;2864;49.220;8.654;2023-03-29T15:00:47;3.43;;;1.50;;
5682;SDS011;2864;49.220;8.654;2023-03-29T15:03:14;8.90;;;2.10;;
5682;SDS011;2864;49.220;8.654;2023-03-29T15:05:51;3.87;;;1.80;;
5682;SDS011;2864;49.220;8.654;2023-03-29T15:08:22;4.57;;;2.10;;
5682;SDS011;2864;49.220;8.654;2023-03-29T15:10:53;2.67;;;2.00;;
5682;SDS011;2864;49.220;8.654;2023-03-29T15:13:20;3.60;;;2.20;;
5682;SDS011;2864;49.220;8.654;2023-03-29T15:15:48;4.97;;;1.93;;
5682;SDS011;2864;49.220;8.654;2023-03-29T15:18:15;2.07;;;1.80;;
5682;SDS011;2864;49.220;8.654;2023-03-29T15:20:41;4.10;;;2.00;;
5682;SDS011;2864;49.220;8.654;2023-03-29T15:25:40;4.57;;;1.83;;
5682;SDS011;2864;49.220;8.654;2023-03-29T15:28:21;3.73;;;2.13;;
5682;SDS011;2864;49.220;8.654;2023-03-29T15:30:50;3.73;;;2.03;;
5682;SDS011;2864;49.220;8.654;2023-03-29T15:33:20;5.63;;;2.33;;
5682;SDS011;2864;49.220;8.654;2023-03-29T15:35:58;6.27;;;2.70;;
5682;SDS011;2864;49.220;8.654;2023-03-29T15:38:25;2.63;;;1.80;;
5682;SDS011;2864;49.220;8.654;2023-03-29T15:40:51;2.47;;;2.20;;
5682;SDS011;2864;49.220;8.654;2023-03-29T15:43:17;8.37;;;2.37;;
5682;SDS011;2864;49.220;8.654;2023-03-29T15:45:45;2.70;;;2.07;;
5682;SDS011;2864;49.220;8.654;2023-03-29T15:48:15;2.20;;;1.80;;
5682;SDS011;2864;49.220;8.654;2023-03-29T15:50:43;3.67;;;1.93;;
5682;SDS011;2864;49.220;8.654;2023-03-29T15:53:09;7.03;;;2.10;;
5682;SDS011;2864;49.220;8.654;2023-03-29T15:55:37;3.30;;;2.13;;
5682;SDS011;2864;49.220;8.654;2023-03-29T15:58:04;3.23;;;2.10;;
5682;SDS011;2864;49.220;8.654;2023-03-29T16:00:30;3.47;;;2.20;;
5682;SDS011;2864;49.220;8.654;2023-03-29T16:02:56;2.73;;;1.80;;
5682;SDS011;2864;49.220;8.654;2023-03-29T16:05:22;3.50;;;1.93;;
5682;SDS011;2864;49.220;8.654;2023-03-29T16:07:48;6.80;;;3.00;;
5682;SDS011;2864;49.220;8.654;2023-03-29T16:10:14;7.13;;;2.10;;
5682;SDS011;2864;49.220;8.654;2023-03-29T16:12:40;3.43;;;2.00;;
5682;SDS011;2864;49.220;8.654;2023-03-29T16:15:10;4.67;;;2.00;;
5682;SDS011;2864;49.220;8.654;2023-03-29T16:17:38;5.27;;;2.50;;
5682;SDS011;2864;49.220;8.654;2023-03-29T16:20:04;6.10;;;2.33;;
5682;SDS011;2864;49.220;8.654;2023-03-29T16:22:31;4.17;;;1.90;;
5682;SDS011;2864;49.220;8.654;2023-03-29T16:24:57;5.00;;;2.20;;
5682;SDS011;2864;49.220;8.654;2023-03-29T16:27:23;6.57;;;2.20;;
5682;SDS011;2864;49.220;8.654;2023-03-29T16:29:49;4.60;;;2.20;;
5682;SDS011;2864;49.220;8.654;2023-03-29T16:32:15;3.67;;;2.00;;
5682;SDS011;2864;49.220;8.654;2023-03-29T16:34:41;3.63;;;1.97;;
5682;SDS011;2864;49.220;8.654;2023-03-29T16:37:07;3.80;;;2.20;;
5682;SDS011;2864;49.220;8.654;2023-03-29T16:39:33;5.57;;;2.30;;
5682;SDS011;2864;49.220;8.654;2023-03-29T16:41:59;5.97;;;2.90;;
5682;SDS011;2864;49.220;8.654;2023-03-29T16:44:25;2.90;;;2.60;;
5682;SDS011;2864;49.220;8.654;2023-03-29T16:46:51;4.17;;;2.30;;
5682;SDS011;2864;49.220;8.654;2023-03-29T16:49:17;4.10;;;2.20;;
5682;SDS011;2864;49.220;8.654;2023-03-29T16:51:46;4.60;;;2.20;;
5682;SDS011;2864;49.220;8.654;2023-03-29T16:54:13;3.90;;;2.33;;
5682;SDS011;2864;49.220;8.654;2023-03-29T16:56:39;7.13;;;2.63;;
5682;SDS011;2864;49.220;8.654;2023-03-29T16:59:05;3.83;;;2.60;;
5682;SDS011;2864;49.220;8.654;2023-03-29T17:01:31;5.27;;;2.97;;
5682;SDS011;2864;49.220;8.654;2023-03-29T17:03:57;3.97;;;2.80;;
5682;SDS011;2864;49.220;8.654;2023-03-29T17:06:23;8.40;;;4.30;;
5682;SDS011;2864;49.220;8.654;2023-03-29T17:08:49;11.27;;;6.83;;
5682;SDS011;2864;49.220;8.654;2023-03-29T17:11:14;5.60;;;3.67;;
5682;SDS011;2864;49.220;8.654;2023-03-29T17:13:41;11.13;;;5.67;;
5682;SDS011;2864;49.220;8.654;2023-03-29T17:16:07;10.93;;;6.40;;
5682;SDS011;2864;49.220;8.654;2023-03-29T17:18:33;10.73;;;5.57;;
5682;SDS011;2864;49.220;8.654;2023-03-29T17:20:59;9.53;;;6.03;;
5682;SDS011;2864;49.220;8.654;2023-03-29T17:23:25;9.93;;;5.47;;
5682;SDS011;2864;49.220;8.654;2023-03-29T17:25:53;16.93;;;9.90;;